Time,TemperatureF,DewpointF,PressureIn,WindDirection,WindDirectionDegrees,WindSpeedMPH,WindSpeedGustMPH,Humidity,HourlyPrecipIn,Conditions,Clouds,dailyrainin,SolarRadiationWatts/m^2,SoftwareType,DateUTC
2013-05-26 00:00:00,68.6,62.2,29.95,East,99,5.0,9.0,80,0.00,,,0.29,0,Wunderground v.1.15,2013-05-26 05:00:00,
2013-05-26 00:09:00,68.4,62.0,29.95,East,93,5.0,10.0,80,0.00,,,0.00,0,Wunderground v.1.15,2013-05-26 05:09:00,
2013-05-26 00:19:00,68.1,62.0,29.94,East,94,5.0,5.0,81,0.00,,,0.00,0,Wunderground v.1.15,2013-05-26 05:19:00,
2013-05-26 00:29:00,67.8,61.8,29.94,ESE,109,6.0,6.0,81,0.00,,,0.00,0,Wunderground v.1.15,2013-05-26 05:29:00,
2013-05-26 00:39:00,67.6,61.6,29.94,ESE,112,4.0,6.0,81,0.00,,,0.00,0,Wunderground v.1.15,2013-05-26 05:39:00,
2013-05-26 00:49:00,67.4,61.7,29.94,ESE,109,4.0,4.0,82,0.00,,,0.00,0,Wunderground v.1.15,2013-05-26 05:49:00,
2013-05-26 00:59:00,67.3,61.6,29.94,ESE,103,5.0,8.0,82,0.00,,,0.00,0,Wunderground v.1.15,2013-05-26 05:59:00,
2013-05-26 01:10:00,67.1,61.4,29.94,ESE,111,7.0,7.0,82,0.00,,,0.00,0,Wunderground v.1.15,2013-05-26 06:10:00,
2013-05-26 01:20:00,66.9,61.2,29.93,ESE,119,6.0,6.0,82,0.00,,,0.00,0,Wunderground v.1.15,2013-05-26 06:20:00,
2013-05-26 01:30:00,66.9,61.2,29.93,ESE,109,7.0,7.0,82,0.00,,,0.00,0,Wunderground v.1.15,2013-05-26 06:30:00,
2013-05-26 01:40:00,66.8,61.1,29.92,ESE,109,7.0,9.0,82,0.00,,,0.00,0,Wunderground v.1.15,2013-05-26 06:40:00,
2013-05-26 01:50:00,66.6,60.9,29.92,ESE,118,7.0,8.0,82,0.00,,,0.00,0,Wunderground v.1.15,2013-05-26 06:50:00,
2013-05-26 02:00:00,66.4,60.7,29.92,ESE,122,4.0,4.0,82,0.00,,,0.00,0,Wunderground v.1.15,2013-05-26 07:00:00,
2013-05-26 02:10:00,66.3,61.0,29.92,ESE,110,5.0,7.0,83,0.00,,,0.00,0,Wunderground v.1.15,2013-05-26 07:10:00,
2013-05-26 02:20:00,66.1,60.8,29.92,ESE,113,6.0,6.0,83,0.00,,,0.00,0,Wunderground v.1.15,2013-05-26 07:20:00,
2013-05-26 02:30:00,65.6,60.6,29.92,ESE,112,4.0,4.0,84,0.00,,,0.00,0,Wunderground v.1.15,2013-05-26 07:30:00,
2013-05-26 02:40:00,65.5,60.5,29.92,ESE,109,4.0,4.0,84,0.00,,,0.00,0,Wunderground v.1.15,2013-05-26 07:40:00,
2013-05-26 02:50:00,65.3,60.7,29.91,ESE,111,2.0,2.0,85,0.00,,,0.00,0,Wunderground v.1.15,2013-05-26 07:50:00,
2013-05-26 03:00:00,65.0,60.7,29.91,ESE,118,1.0,1.0,86,0.00,,,0.00,0,Wunderground v.1.15,2013-05-26 08:00:00,
2013-05-26 03:10:00,65.2,60.9,29.90,ESE,111,1.0,1.0,86,0.00,,,0.00,0,Wunderground v.1.15,2013-05-26 08:10:00,
2013-05-26 03:20:00,65.2,60.9,29.90,ESE,115,1.0,1.0,86,0.00,,,0.00,0,Wunderground v.1.15,2013-05-26 08:20:00,
2013-05-26 03:30:00,64.8,60.5,29.90,ESE,120,0.0,0.0,86,0.00,,,0.00,0,Wunderground v.1.15,2013-05-26 08:30:00,
2013-05-26 03:40:00,64.7,60.7,29.89,ESE,115,1.0,1.0,87,0.00,,,0.00,0,Wunderground v.1.15,2013-05-26 08:40:00,
2013-05-26 03:50:00,64.7,60.7,29.89,ESE,115,1.0,1.0,87,0.00,,,0.00,0,Wunderground v.1.15,2013-05-26 08:50:00,
2013-05-26 04:00:00,64.5,60.5,29.89,ESE,119,0.0,3.0,87,0.00,,,0.00,0,Wunderground v.1.15,2013-05-26 09:00:00,
2013-05-26 04:10:00,64.3,60.7,29.89,ESE,117,1.0,1.0,88,0.00,,,0.00,0,Wunderground v.1.15,2013-05-26 09:10:00,
2013-05-26 04:20:00,64.2,60.6,29.89,ESE,118,2.0,4.0,88,0.00,,,0.00,0,Wunderground v.1.15,2013-05-26 09:20:00,
2013-05-26 04:30:00,64.0,60.4,29.89,ESE,121,0.0,4.0,88,0.00,,,0.00,0,Wunderground v.1.15,2013-05-26 09:30:00,
2013-05-26 04:40:00,63.9,60.3,29.88,ESE,111,3.0,3.0,88,0.00,,,0.00,0,Wunderground v.1.15,2013-05-26 09:40:00,
2013-05-26 04:50:00,63.9,60.6,29.88,ESE,117,2.0,6.0,89,0.00,,,0.00,0,Wunderground v.1.15,2013-05-26 09:50:00,
2013-05-26 05:00:00,63.9,60.6,29.88,ESE,114,3.0,3.0,89,0.00,,,0.00,0,Wunderground v.1.15,2013-05-26 10:00:00,
2013-05-26 05:10:00,64.0,60.7,29.87,SE,128,3.0,7.0,89,0.00,,,0.00,0,Wunderground v.1.15,2013-05-26 10:10:00,
2013-05-26 05:20:00,64.2,60.9,29.87,SE,142,2.0,2.0,89,0.00,,,0.00,0,Wunderground v.1.15,2013-05-26 10:20:00,
2013-05-26 05:30:00,64.2,60.9,29.87,SE,124,0.0,0.0,89,0.00,,,0.00,0,Wunderground v.1.15,2013-05-26 10:30:00,
2013-05-26 05:40:00,64.3,61.0,29.87,ESE,120,0.0,0.0,89,0.00,,,0.00,0,Wunderground v.1.15,2013-05-26 10:40:00,
2013-05-26 05:50:00,64.3,61.0,29.88,ESE,115,0.0,0.0,89,0.00,,,0.00,0,Wunderground v.1.15,2013-05-26 10:50:00,
2013-05-26 06:00:00,64.3,61.3,29.88,ESE,117,0.0,0.0,90,0.00,,,0.00,0,Wunderground v.1.15,2013-05-26 11:00:00,
2013-05-26 06:10:00,64.7,61.7,29.88,ESE,114,0.0,0.0,90,0.00,,,0.00,0,Wunderground v.1.15,2013-05-26 11:10:00,
2013-05-26 06:20:00,64.7,61.7,29.88,ESE,111,0.0,0.0,90,0.00,,,0.00,7,Wunderground v.1.15,2013-05-26 11:20:00,
2013-05-26 06:30:00,64.8,61.8,29.88,ESE,111,0.0,0.0,90,0.00,,,0.00,7,Wunderground v.1.15,2013-05-26 11:30:00,
2013-05-26 06:40:00,65.0,62.0,29.90,ESE,111,0.0,0.0,90,0.00,,,0.00,5,Wunderground v.1.15,2013-05-26 11:40:00,
2013-05-26 06:50:00,65.2,62.2,29.91,ESE,115,0.0,0.0,90,0.00,,,0.00,7,Wunderground v.1.15,2013-05-26 11:50:00,
2013-05-26 07:00:00,65.5,62.5,29.91,SW,215,0.0,0.0,90,0.00,,,0.00,12,Wunderground v.1.15,2013-05-26 12:00:00,
2013-05-26 07:10:00,65.6,62.6,29.92,ESE,115,0.0,0.0,90,0.00,,,0.00,49,Wunderground v.1.15,2013-05-26 12:10:00,
2013-05-26 07:20:00,65.8,62.8,29.91,ESE,113,0.0,0.0,90,0.00,,,0.00,39,Wunderground v.1.15,2013-05-26 12:20:00,
2013-05-26 07:30:00,66.1,63.1,29.91,ESE,113,0.0,0.0,90,0.00,,,0.00,28,Wunderground v.1.15,2013-05-26 12:30:00,
2013-05-26 07:40:00,66.1,62.8,29.92,ESE,113,0.0,0.0,89,0.00,,,0.00,35,Wunderground v.1.15,2013-05-26 12:40:00,
2013-05-26 07:50:00,66.1,62.8,29.91,ESE,112,0.0,2.0,89,0.00,,,0.00,65,Wunderground v.1.15,2013-05-26 12:50:00,
2013-05-26 08:00:00,66.4,63.1,29.91,ESE,113,2.0,2.0,89,0.00,,,0.00,88,Wunderground v.1.15,2013-05-26 13:00:00,
2013-05-26 08:10:00,66.8,63.1,29.91,ESE,111,2.0,3.0,88,0.00,,,0.00,90,Wunderground v.1.15,2013-05-26 13:10:00,
2013-05-26 08:20:00,67.1,63.4,29.91,ESE,110,1.0,1.0,88,0.00,,,0.00,74,Wunderground v.1.15,2013-05-26 13:20:00,
2013-05-26 08:30:00,67.4,63.7,29.91,ESE,117,1.0,1.0,88,0.00,,,0.00,77,Wunderground v.1.15,2013-05-26 13:30:00,
2013-05-26 08:40:00,67.6,63.9,29.91,ESE,121,1.0,1.0,88,0.00,,,0.00,97,Wunderground v.1.15,2013-05-26 13:40:00,
2013-05-26 08:50:00,67.9,64.2,29.90,East,101,4.0,6.0,88,0.00,,,0.00,135,Wunderground v.1.15,2013-05-26 13:50:00,
2013-05-26 09:00:00,68.1,64.1,29.90,ESE,114,3.0,3.0,87,0.00,,,0.00,98,Wunderground v.1.15,2013-05-26 14:00:00,
2013-05-26 09:10:00,68.3,64.3,29.91,East,94,2.0,3.0,87,0.00,,,0.00,109,Wunderground v.1.15,2013-05-26 14:10:00,
2013-05-26 09:20:00,68.4,64.4,29.91,ESE,102,1.0,3.0,87,0.00,,,0.00,100,Wunderground v.1.15,2013-05-26 14:20:00,
2013-05-26 09:30:00,68.9,64.9,29.91,East,97,0.0,3.0,87,0.00,,,0.00,135,Wunderground v.1.15,2013-05-26 14:30:00,
2013-05-26 09:40:00,69.3,64.9,29.91,East,94,2.0,2.0,86,0.00,,,0.00,139,Wunderground v.1.15,2013-05-26 14:40:00,
2013-05-26 09:50:00,69.4,64.7,29.91,East,80,1.0,1.0,85,0.00,,,0.00,118,Wunderground v.1.15,2013-05-26 14:50:00,
2013-05-26 10:00:00,69.3,64.9,29.91,ENE,77,1.0,1.0,86,0.00,,,0.00,144,Wunderground v.1.15,2013-05-26 15:00:00,
2013-05-26 10:10:00,69.8,65.4,29.92,ESE,102,1.0,6.0,86,0.00,,,0.00,220,Wunderground v.1.15,2013-05-26 15:10:00,
2013-05-26 10:20:00,70.6,65.9,29.91,ENE,73,1.0,3.0,85,0.00,,,0.00,214,Wunderground v.1.15,2013-05-26 15:20:00,
2013-05-26 10:30:00,70.8,65.7,29.91,ENE,61,4.0,6.0,84,0.00,,,0.00,294,Wunderground v.1.15,2013-05-26 15:30:00,
2013-05-26 10:40:00,71.1,65.7,29.90,East,94,4.0,4.0,83,0.00,,,0.00,308,Wunderground v.1.15,2013-05-26 15:40:00,
2013-05-26 10:50:00,72.1,66.3,29.90,ESE,109,3.0,7.0,82,0.00,,,0.00,301,Wunderground v.1.15,2013-05-26 15:50:00,
2013-05-26 11:00:00,73.0,66.5,29.90,ESE,110,2.0,2.0,80,0.00,,,0.00,281,Wunderground v.1.15,2013-05-26 16:00:00,
2013-05-26 11:10:00,73.3,66.8,29.89,ESE,120,3.0,3.0,80,0.00,,,0.00,232,Wunderground v.1.15,2013-05-26 16:10:00,
2013-05-26 11:20:00,73.7,66.4,29.89,SE,139,2.0,2.0,78,0.00,,,0.00,214,Wunderground v.1.15,2013-05-26 16:20:00,
2013-05-26 11:30:00,74.4,66.3,29.89,ESE,117,1.0,1.0,76,0.00,,,0.00,234,Wunderground v.1.15,2013-05-26 16:30:00,
2013-05-26 11:40:00,75.3,66.8,29.90,SE,144,0.0,0.0,75,0.00,,,0.00,345,Wunderground v.1.15,2013-05-26 16:40:00,
2013-05-26 11:50:00,76.0,66.7,29.91,SE,128,2.0,2.0,73,0.00,,,0.00,211,Wunderground v.1.15,2013-05-26 16:50:00,
2013-05-26 12:00:00,75.8,66.5,29.91,East,89,0.0,0.0,73,0.00,,,0.00,156,Wunderground v.1.15,2013-05-26 17:00:00,
2013-05-26 12:10:00,76.0,67.1,29.91,East,89,0.0,0.0,74,0.00,,,0.00,197,Wunderground v.1.15,2013-05-26 17:10:00,
2013-05-26 12:20:00,76.3,66.6,29.90,ESE,116,0.0,0.0,72,0.00,,,0.00,144,Wunderground v.1.15,2013-05-26 17:20:00,
2013-05-26 12:30:00,76.5,67.2,29.90,ESE,115,0.0,0.0,73,0.00,,,0.00,132,Wunderground v.1.15,2013-05-26 17:30:00,
2013-05-26 12:40:00,76.1,67.6,29.89,ENE,71,0.0,0.0,75,0.00,,,0.00,105,Wunderground v.1.15,2013-05-26 17:40:00,
2013-05-26 12:50:00,76.1,68.0,29.89,ESE,103,0.0,0.0,76,0.00,,,0.00,190,Wunderground v.1.15,2013-05-26 17:50:00,
2013-05-26 13:00:00,76.3,67.8,29.89,SE,134,0.0,0.0,75,0.00,,,0.00,213,Wunderground v.1.15,2013-05-26 18:00:00,
2013-05-26 13:10:00,77.0,68.5,29.88,ESE,105,1.0,5.0,75,0.00,,,0.00,429,Wunderground v.1.15,2013-05-26 18:10:00,
2013-05-26 13:20:00,79.0,68.4,29.86,SE,132,5.0,7.0,70,0.00,,,0.00,1000,Wunderground v.1.15,2013-05-26 18:20:00,
2013-05-26 13:30:00,80.3,68.8,29.86,SSE,159,6.0,6.0,68,0.00,,,0.00,631,Wunderground v.1.15,2013-05-26 18:30:00,
2013-05-26 13:40:00,80.3,67.9,29.86,East,84,2.0,2.0,66,0.00,,,0.00,178,Wunderground v.1.15,2013-05-26 18:40:00,
2013-05-26 13:50:00,80.1,67.7,29.86,SE,132,0.0,1.0,66,0.00,,,0.00,169,Wunderground v.1.15,2013-05-26 18:50:00,
2013-05-26 14:00:00,80.1,67.3,29.86,South,186,0.0,1.0,65,0.00,,,0.00,376,Wunderground v.1.15,2013-05-26 19:00:00,
2013-05-26 14:10:00,81.6,67.3,29.86,SW,221,1.0,4.0,62,0.00,,,0.00,689,Wunderground v.1.15,2013-05-26 19:10:00,
2013-05-26 14:20:00,81.8,67.5,29.86,SSW,194,1.0,2.0,62,0.00,,,0.00,295,Wunderground v.1.15,2013-05-26 19:20:00,
2013-05-26 14:30:00,81.4,67.6,29.86,South,169,2.0,2.0,63,0.00,,,0.00,432,Wunderground v.1.15,2013-05-26 19:30:00,
2013-05-26 14:40:00,82.0,67.7,29.85,SSE,148,2.0,2.0,62,0.00,,,0.00,998,Wunderground v.1.15,2013-05-26 19:40:00,
2013-05-26 14:50:00,82.6,68.3,29.84,West,264,1.0,1.0,62,0.00,,,0.00,1044,Wunderground v.1.15,2013-05-26 19:50:00,
2013-05-26 15:00:00,83.2,67.9,29.84,NE,43,1.0,2.0,60,0.00,,,0.00,397,Wunderground v.1.15,2013-05-26 20:00:00,
2013-05-26 15:10:00,82.8,67.5,29.84,ESE,112,2.0,4.0,60,0.00,,,0.00,420,Wunderground v.1.15,2013-05-26 20:10:00,
2013-05-26 15:20:00,83.8,68.4,29.82,SW,228,2.0,4.0,60,0.00,,,0.00,870,Wunderground v.1.15,2013-05-26 20:20:00,
2013-05-26 15:30:00,83.8,67.9,29.82,South,169,1.0,1.0,59,0.00,,,0.00,350,Wunderground v.1.15,2013-05-26 20:30:00,
2013-05-26 15:40:00,83.6,68.7,29.82,NE,46,1.0,1.0,61,0.00,,,0.00,306,Wunderground v.1.15,2013-05-26 20:40:00,
2013-05-26 15:50:00,83.2,67.9,29.83,SSW,195,1.0,1.0,60,0.00,,,0.00,199,Wunderground v.1.15,2013-05-26 20:50:00,
2013-05-26 16:00:00,82.8,68.4,29.83,ESE,104,1.0,1.0,62,0.00,,,0.00,155,Wunderground v.1.15,2013-05-26 21:00:00,
2013-05-26 16:10:00,82.6,67.8,29.83,ESE,115,0.0,0.0,61,0.00,,,0.00,223,Wunderground v.1.15,2013-05-26 21:10:00,
2013-05-26 16:20:00,83.0,68.6,29.83,ESE,113,1.0,1.0,62,0.00,,,0.00,267,Wunderground v.1.15,2013-05-26 21:20:00,
2013-05-26 16:30:00,83.4,68.5,29.83,SE,134,0.0,0.0,61,0.00,,,0.00,751,Wunderground v.1.15,2013-05-26 21:30:00,
2013-05-26 16:40:00,84.3,68.4,29.81,South,179,1.0,1.0,59,0.00,,,0.00,622,Wunderground v.1.15,2013-05-26 21:40:00,
2013-05-26 16:50:00,85.1,69.2,29.80,South,175,2.0,2.0,59,0.00,,,0.00,631,Wunderground v.1.15,2013-05-26 21:50:00,
2013-05-26 17:00:00,85.5,68.5,29.80,ESE,117,1.0,1.0,57,0.00,,,0.00,244,Wunderground v.1.15,2013-05-26 22:00:00,
2013-05-26 17:10:00,84.9,68.0,29.79,SE,146,1.0,1.0,57,0.00,,,0.00,628,Wunderground v.1.15,2013-05-26 22:10:00,
2013-05-26 17:20:00,85.3,69.3,29.78,ENE,70,2.0,2.0,59,0.00,,,0.00,591,Wunderground v.1.15,2013-05-26 22:20:00,
2013-05-26 17:30:00,85.7,67.7,29.78,SSE,167,1.0,6.0,55,0.00,,,0.00,552,Wunderground v.1.15,2013-05-26 22:30:00,
2013-05-26 17:40:00,85.7,69.2,29.77,East,101,1.0,4.0,58,0.00,,,0.00,524,Wunderground v.1.15,2013-05-26 22:40:00,
2013-05-26 17:50:00,86.1,68.0,29.76,SE,143,2.0,2.0,55,0.00,,,0.00,503,Wunderground v.1.15,2013-05-26 22:50:00,
2013-05-26 18:00:00,86.1,69.6,29.76,SE,128,1.0,1.0,58,0.00,,,0.00,234,Wunderground v.1.15,2013-05-26 23:00:00,
2013-05-26 18:10:00,85.1,68.2,29.77,SE,128,1.0,1.0,57,0.00,,,0.00,155,Wunderground v.1.15,2013-05-26 23:10:00,
2013-05-26 18:20:00,84.5,69.1,29.77,ESE,103,0.0,0.0,60,0.00,,,0.00,438,Wunderground v.1.15,2013-05-26 23:20:00,
2013-05-26 18:30:00,84.5,68.1,29.77,ESE,111,1.0,1.0,58,0.00,,,0.00,142,Wunderground v.1.15,2013-05-26 23:30:00,
2013-05-26 18:40:00,83.8,68.9,29.77,ESE,115,1.0,1.0,61,0.00,,,0.00,111,Wunderground v.1.15,2013-05-26 23:40:00,
2013-05-26 18:50:00,83.2,68.8,29.78,ESE,107,1.0,1.0,62,0.00,,,0.00,83,Wunderground v.1.15,2013-05-26 23:50:00,
2013-05-26 19:00:00,82.4,69.0,29.78,ESE,114,2.0,2.0,64,0.00,,,0.00,65,Wunderground v.1.15,2013-05-27 00:00:00,
2013-05-26 19:10:00,81.8,68.9,29.78,ESE,111,0.0,0.0,65,0.00,,,0.00,70,Wunderground v.1.15,2013-05-27 00:10:00,
2013-05-26 19:20:00,81.4,68.5,29.78,ESE,118,0.0,0.0,65,0.00,,,0.00,77,Wunderground v.1.15,2013-05-27 00:20:00,
2013-05-26 19:30:00,81.1,68.7,29.78,SW,226,0.0,3.0,66,0.00,,,0.00,63,Wunderground v.1.15,2013-05-27 00:30:00,
2013-05-26 19:40:00,80.9,68.0,29.78,SSE,158,0.0,0.0,65,0.00,,,0.00,63,Wunderground v.1.15,2013-05-27 00:40:00,
2013-05-26 19:50:00,80.5,67.6,29.78,NE,38,0.0,0.0,65,0.00,,,0.00,62,Wunderground v.1.15,2013-05-27 00:50:00,
2013-05-26 20:00:00,80.1,67.3,29.78,SW,235,1.0,1.0,65,0.00,,,0.00,33,Wunderground v.1.15,2013-05-27 01:00:00,
2013-05-26 20:10:00,79.6,66.8,29.79,SE,136,1.0,2.0,65,0.00,,,0.00,30,Wunderground v.1.15,2013-05-27 01:10:00,
2013-05-26 20:20:00,79.2,66.9,29.79,East,99,1.0,1.0,66,0.00,,,0.00,23,Wunderground v.1.15,2013-05-27 01:20:00,
2013-05-26 20:30:00,78.8,66.5,29.79,NE,56,0.0,0.0,66,0.00,,,0.00,11,Wunderground v.1.15,2013-05-27 01:30:00,
2013-05-26 20:40:00,78.5,66.6,29.79,ESE,116,0.0,3.0,67,0.00,,,0.00,5,Wunderground v.1.15,2013-05-27 01:40:00,
2013-05-26 20:50:00,78.1,66.7,29.80,SE,132,0.0,0.0,68,0.00,,,0.00,0,Wunderground v.1.15,2013-05-27 01:50:00,
2013-05-26 21:00:00,77.7,66.7,29.80,SE,135,0.0,0.0,69,0.00,,,0.00,0,Wunderground v.1.15,2013-05-27 02:00:00,
2013-05-26 21:10:00,77.2,66.7,29.81,ESE,118,0.0,0.0,70,0.00,,,0.00,0,Wunderground v.1.15,2013-05-27 02:10:00,
2013-05-26 21:20:00,77.0,66.9,29.81,ESE,117,0.0,0.0,71,0.00,,,0.00,0,Wunderground v.1.15,2013-05-27 02:20:00,
2013-05-26 21:30:00,76.8,66.7,29.81,ESE,117,0.0,0.0,71,0.00,,,0.00,0,Wunderground v.1.15,2013-05-27 02:30:00,
2013-05-26 21:40:00,76.8,66.7,29.81,ESE,117,0.0,0.0,71,0.00,,,0.00,0,Wunderground v.1.15,2013-05-27 02:40:00,
2013-05-26 21:50:00,77.0,66.9,29.81,ESE,116,2.0,2.0,71,0.00,,,0.00,0,Wunderground v.1.15,2013-05-27 02:50:00,
2013-05-26 22:00:00,74.6,65.4,29.81,ENE,60,4.0,10.0,73,0.00,,,0.00,0,Wunderground v.1.15,2013-05-27 03:00:00,
2013-05-26 22:10:00,71.3,63.7,29.81,East,88,10.0,14.0,77,0.00,,,0.00,0,Wunderground v.1.15,2013-05-27 03:10:00,
2013-05-26 22:20:00,69.9,63.4,29.80,East,90,10.0,12.0,80,0.00,,,0.00,0,Wunderground v.1.15,2013-05-27 03:20:00,
2013-05-26 22:30:00,69.8,63.7,29.80,East,101,8.0,8.0,81,0.00,,,0.00,0,Wunderground v.1.15,2013-05-27 03:30:00,
2013-05-26 22:40:00,69.9,63.8,29.80,ESE,112,5.0,5.0,81,0.00,,,0.00,0,Wunderground v.1.15,2013-05-27 03:40:00,
2013-05-26 23:00:00,71.1,63.1,29.80,ESE,112,8.0,8.0,76,0.00,,,0.00,0,Wunderground v.1.15,2013-05-27 04:00:00,
2013-05-26 23:10:00,71.1,62.8,29.78,ESE,108,5.0,5.0,75,0.00,,,0.00,0,Wunderground v.1.15,2013-05-27 04:10:00,
2013-05-26 23:20:00,71.1,62.4,29.80,SE,127,6.0,6.0,74,0.00,,,0.00,0,Wunderground v.1.15,2013-05-27 04:20:00,
2013-05-26 23:30:00,71.3,62.6,29.80,East,95,8.0,8.0,74,0.00,,,0.00,0,Wunderground v.1.15,2013-05-27 04:30:00,
2013-05-26 23:40:00,71.1,62.0,29.79,ESE,114,6.0,8.0,73,0.00,,,0.00,0,Wunderground v.1.15,2013-05-27 04:40:00,
2013-05-26 23:50:00,71.1,62.0,29.79,ESE,106,7.0,9.0,73,0.00,,,0.00,0,Wunderground v.1.15,2013-05-27 04:50:00,